sensor_id;sensor_type;location;lat;lon;timestamp;temperature;humidity
14471;DHT22;7321;50.802;4.336;2022-07-24T00:00:09;22.30;99.90
14471;DHT22;7321;50.802;4.336;2022-07-24T00:02:35;22.20;99.90
14471;DHT22;7321;50.802;4.336;2022-07-24T00:05:01;22.30;99.90
14471;DHT22;7321;50.802;4.336;2022-07-24T00:07:27;22.40;99.90
14471;DHT22;7321;50.802;4.336;2022-07-24T00:09:53;22.30;99.90
14471;DHT22;7321;50.802;4.336;2022-07-24T00:12:19;22.20;99.90
14471;DHT22;7321;50.802;4.336;2022-07-24T00:14:45;22.20;99.90
14471;DHT22;7321;50.802;4.336;2022-07-24T00:17:11;22.10;99.90
14471;DHT22;7321;50.802;4.336;2022-07-24T00:19:37;22.10;99.90
14471;DHT22;7321;50.802;4.336;2022-07-24T00:22:03;22.10;99.90
14471;DHT22;7321;50.802;4.336;2022-07-24T00:24:29;22.10;99.90
14471;DHT22;7321;50.802;4.336;2022-07-24T00:26:55;22.10;99.90
14471;DHT22;7321;50.802;4.336;2022-07-24T00:29:21;22.00;99.90
14471;DHT22;7321;50.802;4.336;2022-07-24T00:31:47;22.00;99.90
14471;DHT22;7321;50.802;4.336;2022-07-24T00:34:12;22.00;99.90
14471;DHT22;7321;50.802;4.336;2022-07-24T00:36:38;22.00;99.90
14471;DHT22;7321;50.802;4.336;2022-07-24T00:39:07;22.00;99.90
14471;DHT22;7321;50.802;4.336;2022-07-24T00:41:33;21.90;99.90
14471;DHT22;7321;50.802;4.336;2022-07-24T00:44:11;21.80;99.90
14471;DHT22;7321;50.802;4.336;2022-07-24T00:46:39;21.70;99.90
14471;DHT22;7321;50.802;4.336;2022-07-24T00:49:09;21.70;99.90
14471;DHT22;7321;50.802;4.336;2022-07-24T00:51:35;21.70;99.90
14471;DHT22;7321;50.802;4.336;2022-07-24T00:54:05;21.60;99.90
14471;DHT22;7321;50.802;4.336;2022-07-24T00:56:31;21.60;99.90
14471;DHT22;7321;50.802;4.336;2022-07-24T00:58:57;21.60;99.90
14471;DHT22;7321;50.802;4.336;2022-07-24T01:01:22;21.50;99.90
14471;DHT22;7321;50.802;4.336;2022-07-24T01:03:49;21.50;99.90
14471;DHT22;7321;50.802;4.336;2022-07-24T01:06:14;21.50;99.90
14471;DHT22;7321;50.802;4.336;2022-07-24T01:08:41;21.30;99.90
14471;DHT22;7321;50.802;4.336;2022-07-24T01:11:09;21.40;99.90
14471;DHT22;7321;50.802;4.336;2022-07-24T01:13:35;21.40;99.90
14471;DHT22;7321;50.802;4.336;2022-07-24T01:16:01;21.30;99.90
14471;DHT22;7321;50.802;4.336;2022-07-24T01:18:27;21.30;99.90
14471;DHT22;7321;50.802;4.336;2022-07-24T01:20:53;21.10;99.90
14471;DHT22;7321;50.802;4.336;2022-07-24T01:23:21;21.10;99.90
14471;DHT22;7321;50.802;4.336;2022-07-24T01:25:47;21.10;99.90
14471;DHT22;7321;50.802;4.336;2022-07-24T01:28:13;21.20;99.90
14471;DHT22;7321;50.802;4.336;2022-07-24T01:30:39;21.10;99.90
14471;DHT22;7321;50.802;4.336;2022-07-24T01:33:05;21.10;99.90
14471;DHT22;7321;50.802;4.336;2022-07-24T01:35:31;21.10;99.90
14471;DHT22;7321;50.802;4.336;2022-07-24T01:37:56;21.00;99.90
14471;DHT22;7321;50.802;4.336;2022-07-24T01:40:22;20.90;99.90
14471;DHT22;7321;50.802;4.336;2022-07-24T01:42:48;21.00;99.90
14471;DHT22;7321;50.802;4.336;2022-07-24T01:45:14;21.00;99.90
14471;DHT22;7321;50.802;4.336;2022-07-24T01:47:41;20.90;99.90
14471;DHT22;7321;50.802;4.336;2022-07-24T01:50:10;20.90;99.90
14471;DHT22;7321;50.802;4.336;2022-07-24T01:52:36;20.90;99.90
14471;DHT22;7321;50.802;4.336;2022-07-24T01:55:02;20.90;99.90
14471;DHT22;7321;50.802;4.336;2022-07-24T01:57:28;20.90;99.90
14471;DHT22;7321;50.802;4.336;2022-07-24T01:59:54;21.00;99.90
14471;DHT22;7321;50.802;4.336;2022-07-24T02:02:19;21.00;99.90
14471;DHT22;7321;50.802;4.336;2022-07-24T02:04:45;21.00;99.90
14471;DHT22;7321;50.802;4.336;2022-07-24T02:07:11;21.00;99.90
14471;DHT22;7321;50.802;4.336;2022-07-24T02:09:36;20.90;99.90
14471;DHT22;7321;50.802;4.336;2022-07-24T02:12:03;20.80;99.90
14471;DHT22;7321;50.802;4.336;2022-07-24T02:14:28;20.80;99.90
14471;DHT22;7321;50.802;4.336;2022-07-24T02:16:54;20.90;99.90
14471;DHT22;7321;50.802;4.336;2022-07-24T02:19:20;20.80;99.90
14471;DHT22;7321;50.802;4.336;2022-07-24T02:21:45;20.70;99.90
14471;DHT22;7321;50.802;4.336;2022-07-24T02:24:11;20.50;99.90
14471;DHT22;7321;50.802;4.336;2022-07-24T02:26:37;20.50;99.90
14471;DHT22;7321;50.802;4.336;2022-07-24T02:29:03;20.50;99.90
14471;DHT22;7321;50.802;4.336;2022-07-24T02:31:28;20.50;99.90
14471;DHT22;7321;50.802;4.336;2022-07-24T02:33:54;20.50;99.90
14471;DHT22;7321;50.802;4.336;2022-07-24T02:36:20;20.40;99.90
14471;DHT22;7321;50.802;4.336;2022-07-24T02:38:46;20.50;99.90
14471;DHT22;7321;50.802;4.336;2022-07-24T02:41:11;20.60;99.90
14471;DHT22;7321;50.802;4.336;2022-07-24T02:43:37;20.50;99.90
14471;DHT22;7321;50.802;4.336;2022-07-24T02:46:03;20.50;99.90
14471;DHT22;7321;50.802;4.336;2022-07-24T02:48:29;20.50;99.90
14471;DHT22;7321;50.802;4.336;2022-07-24T02:50:54;20.50;99.90
14471;DHT22;7321;50.802;4.336;2022-07-24T02:53:20;20.50;99.90
14471;DHT22;7321;50.802;4.336;2022-07-24T02:55:46;20.50;99.90
14471;DHT22;7321;50.802;4.336;2022-07-24T02:58:12;20.50;99.90
14471;DHT22;7321;50.802;4.336;2022-07-24T03:00:41;20.50;99.90
14471;DHT22;7321;50.802;4.336;2022-07-24T03:03:07;20.50;99.90
14471;DHT22;7321;50.802;4.336;2022-07-24T03:05:32;20.50;99.90
14471;DHT22;7321;50.802;4.336;2022-07-24T03:07:58;20.40;99.90
14471;DHT22;7321;50.802;4.336;2022-07-24T03:10:24;20.50;99.90
14471;DHT22;7321;50.802;4.336;2022-07-24T03:12:50;20.50;99.90
14471;DHT22;7321;50.802;4.336;2022-07-24T03:15:16;20.50;99.90
14471;DHT22;7321;50.802;4.336;2022-07-24T03:17:55;20.40;99.90
14471;DHT22;7321;50.802;4.336;2022-07-24T03:20:23;20.40;99.90
14471;DHT22;7321;50.802;4.336;2022-07-24T03:22:49;20.30;99.90
14471;DHT22;7321;50.802;4.336;2022-07-24T03:25:16;20.30;99.90
14471;DHT22;7321;50.802;4.336;2022-07-24T03:27:42;20.20;99.90
14471;DHT22;7321;50.802;4.336;2022-07-24T03:30:09;20.20;99.90
14471;DHT22;7321;50.802;4.336;2022-07-24T03:32:36;20.20;99.90
14471;DHT22;7321;50.802;4.336;2022-07-24T03:35:02;20.30;99.90
14471;DHT22;7321;50.802;4.336;2022-07-24T03:37:28;20.30;99.90
14471;DHT22;7321;50.802;4.336;2022-07-24T03:39:54;20.30;99.90
14471;DHT22;7321;50.802;4.336;2022-07-24T03:42:20;20.30;99.90
14471;DHT22;7321;50.802;4.336;2022-07-24T03:44:46;20.20;99.90
14471;DHT22;7321;50.802;4.336;2022-07-24T03:47:11;20.20;99.90
14471;DHT22;7321;50.802;4.336;2022-07-24T03:49:37;20.10;99.90
14471;DHT22;7321;50.802;4.336;2022-07-24T03:52:03;20.10;99.90
14471;DHT22;7321;50.802;4.336;2022-07-24T03:54:29;20.10;99.90
14471;DHT22;7321;50.802;4.336;2022-07-24T03:56:55;20.10;99.90
14471;DHT22;7321;50.802;4.336;2022-07-24T03:59:21;20.10;99.90
14471;DHT22;7321;50.802;4.336;2022-07-24T04:01:47;20.10;99.90
14471;DHT22;7321;50.802;4.336;2022-07-24T04:04:13;20.10;99.90
14471;DHT22;7321;50.802;4.336;2022-07-24T04:06:39;20.00;99.90
14471;DHT22;7321;50.802;4.336;2022-07-24T04:09:09;20.00;99.90
14471;DHT22;7321;50.802;4.336;2022-07-24T04:11:34;19.90;99.90
14471;DHT22;7321;50.802;4.336;2022-07-24T04:14:00;19.90;99.90
14471;DHT22;7321;50.802;4.336;2022-07-24T04:16:26;19.80;99.90
14471;DHT22;7321;50.802;4.336;2022-07-24T04:18:52;19.90;99.90
14471;DHT22;7321;50.802;4.336;2022-07-24T04:21:18;19.90;99.90
14471;DHT22;7321;50.802;4.336;2022-07-24T04:23:43;19.90;99.90
14471;DHT22;7321;50.802;4.336;2022-07-24T04:26:09;20.00;99.90
14471;DHT22;7321;50.802;4.336;2022-07-24T04:28:38;19.80;99.90
14471;DHT22;7321;50.802;4.336;2022-07-24T04:31:04;19.90;99.90
14471;DHT22;7321;50.802;4.336;2022-07-24T04:33:30;19.80;99.90
14471;DHT22;7321;50.802;4.336;2022-07-24T04:35:55;19.70;99.90
14471;DHT22;7321;50.802;4.336;2022-07-24T04:38:21;19.80;99.90
14471;DHT22;7321;50.802;4.336;2022-07-24T04:40:50;19.80;99.90
14471;DHT22;7321;50.802;4.336;2022-07-24T04:43:16;19.90;99.90
14471;DHT22;7321;50.802;4.336;2022-07-24T04:45:42;20.00;99.90
14471;DHT22;7321;50.802;4.336;2022-07-24T04:48:07;19.90;99.90
14471;DHT22;7321;50.802;4.336;2022-07-24T04:50:33;20.00;99.90
14471;DHT22;7321;50.802;4.336;2022-07-24T04:52:59;19.90;99.90
14471;DHT22;7321;50.802;4.336;2022-07-24T04:55:25;20.00;99.90
14471;DHT22;7321;50.802;4.336;2022-07-24T04:57:51;20.00;99.90
14471;DHT22;7321;50.802;4.336;2022-07-24T05:00:17;20.10;99.90
14471;DHT22;7321;50.802;4.336;2022-07-24T05:02:46;20.00;99.90
14471;DHT22;7321;50.802;4.336;2022-07-24T05:05:14;20.10;99.90
14471;DHT22;7321;50.802;4.336;2022-07-24T05:07:40;20.20;99.90
14471;DHT22;7321;50.802;4.336;2022-07-24T05:10:06;20.20;99.90
14471;DHT22;7321;50.802;4.336;2022-07-24T05:12:32;20.20;99.90
14471;DHT22;7321;50.802;4.336;2022-07-24T05:14:58;20.30;99.90
14471;DHT22;7321;50.802;4.336;2022-07-24T05:17:23;20.40;99.90
14471;DHT22;7321;50.802;4.336;2022-07-24T05:19:49;20.50;99.90
14471;DHT22;7321;50.802;4.336;2022-07-24T05:22:15;20.50;99.90
14471;DHT22;7321;50.802;4.336;2022-07-24T05:24:40;20.50;99.90
14471;DHT22;7321;50.802;4.336;2022-07-24T05:27:06;20.60;99.90
14471;DHT22;7321;50.802;4.336;2022-07-24T05:29:32;20.70;99.90
14471;DHT22;7321;50.802;4.336;2022-07-24T05:31:57;20.80;99.90
14471;DHT22;7321;50.802;4.336;2022-07-24T05:34:23;20.90;99.90
14471;DHT22;7321;50.802;4.336;2022-07-24T05:36:50;21.00;99.90
14471;DHT22;7321;50.802;4.336;2022-07-24T05:39:16;21.10;99.90
14471;DHT22;7321;50.802;4.336;2022-07-24T05:41:41;21.00;99.90
14471;DHT22;7321;50.802;4.336;2022-07-24T05:44:07;21.10;99.90
14471;DHT22;7321;50.802;4.336;2022-07-24T05:46:33;21.10;99.90
14471;DHT22;7321;50.802;4.336;2022-07-24T05:48:59;21.10;99.90
14471;DHT22;7321;50.802;4.336;2022-07-24T05:51:25;21.30;99.90
14471;DHT22;7321;50.802;4.336;2022-07-24T05:53:51;21.30;99.90
14471;DHT22;7321;50.802;4.336;2022-07-24T05:56:17;21.40;99.90
14471;DHT22;7321;50.802;4.336;2022-07-24T05:58:43;21.50;99.90
14471;DHT22;7321;50.802;4.336;2022-07-24T06:01:09;21.70;99.90
14471;DHT22;7321;50.802;4.336;2022-07-24T06:03:34;21.90;99.90
14471;DHT22;7321;50.802;4.336;2022-07-24T06:06:01;21.80;99.90
14471;DHT22;7321;50.802;4.336;2022-07-24T06:08:26;21.90;99.90
14471;DHT22;7321;50.802;4.336;2022-07-24T06:10:52;22.00;99.90
14471;DHT22;7321;50.802;4.336;2022-07-24T06:13:18;22.00;99.90
14471;DHT22;7321;50.802;4.336;2022-07-24T06:15:43;22.00;99.90
14471;DHT22;7321;50.802;4.336;2022-07-24T06:18:09;22.10;99.90
14471;DHT22;7321;50.802;4.336;2022-07-24T06:20:35;22.30;99.90
14471;DHT22;7321;50.802;4.336;2022-07-24T06:23:00;22.40;99.90
14471;DHT22;7321;50.802;4.336;2022-07-24T06:25:26;22.40;99.90
14471;DHT22;7321;50.802;4.336;2022-07-24T06:27:52;22.40;99.90
14471;DHT22;7321;50.802;4.336;2022-07-24T06:30:26;22.60;99.90
14471;DHT22;7321;50.802;4.336;2022-07-24T06:32:53;22.80;99.90
14471;DHT22;7321;50.802;4.336;2022-07-24T06:35:19;23.00;99.90
14471;DHT22;7321;50.802;4.336;2022-07-24T06:37:45;23.00;99.90
14471;DHT22;7321;50.802;4.336;2022-07-24T06:40:11;23.00;99.90
14471;DHT22;7321;50.802;4.336;2022-07-24T06:42:38;23.00;99.90
14471;DHT22;7321;50.802;4.336;2022-07-24T06:45:04;22.80;99.90
14471;DHT22;7321;50.802;4.336;2022-07-24T06:47:30;23.00;99.90
14471;DHT22;7321;50.802;4.336;2022-07-24T06:49:56;22.90;99.90
14471;DHT22;7321;50.802;4.336;2022-07-24T06:52:22;22.90;99.90
14471;DHT22;7321;50.802;4.336;2022-07-24T06:54:49;23.10;99.90
14471;DHT22;7321;50.802;4.336;2022-07-24T06:57:15;23.20;99.90
14471;DHT22;7321;50.802;4.336;2022-07-24T06:59:42;23.40;99.90
14471;DHT22;7321;50.802;4.336;2022-07-24T07:02:07;23.50;99.90
14471;DHT22;7321;50.802;4.336;2022-07-24T07:04:33;23.50;99.90
14471;DHT22;7321;50.802;4.336;2022-07-24T07:06:59;23.60;99.90
14471;DHT22;7321;50.802;4.336;2022-07-24T07:09:25;23.80;99.90
14471;DHT22;7321;50.802;4.336;2022-07-24T07:11:51;23.90;99.90
14471;DHT22;7321;50.802;4.336;2022-07-24T07:14:17;24.10;99.90
14471;DHT22;7321;50.802;4.336;2022-07-24T07:16:42;24.30;99.90
14471;DHT22;7321;50.802;4.336;2022-07-24T07:19:08;24.30;99.90
14471;DHT22;7321;50.802;4.336;2022-07-24T07:21:34;24.50;99.90
14471;DHT22;7321;50.802;4.336;2022-07-24T07:24:02;24.60;99.90
14471;DHT22;7321;50.802;4.336;2022-07-24T07:26:27;24.70;99.90
14471;DHT22;7321;50.802;4.336;2022-07-24T07:28:53;24.90;99.90
14471;DHT22;7321;50.802;4.336;2022-07-24T07:31:19;24.90;99.90
14471;DHT22;7321;50.802;4.336;2022-07-24T07:33:45;25.00;99.90
14471;DHT22;7321;50.802;4.336;2022-07-24T07:36:11;25.00;99.90
14471;DHT22;7321;50.802;4.336;2022-07-24T07:38:36;25.00;99.90
14471;DHT22;7321;50.802;4.336;2022-07-24T07:41:04;25.00;99.90
14471;DHT22;7321;50.802;4.336;2022-07-24T07:43:30;25.20;99.90
14471;DHT22;7321;50.802;4.336;2022-07-24T07:45:56;25.20;99.90
14471;DHT22;7321;50.802;4.336;2022-07-24T07:48:22;25.20;99.90
14471;DHT22;7321;50.802;4.336;2022-07-24T07:50:48;25.10;99.90
14471;DHT22;7321;50.802;4.336;2022-07-24T07:53:13;25.20;99.90
14471;DHT22;7321;50.802;4.336;2022-07-24T07:55:39;25.30;99.90
14471;DHT22;7321;50.802;4.336;2022-07-24T07:58:05;25.50;99.90
14471;DHT22;7321;50.802;4.336;2022-07-24T08:00:32;25.80;99.90
14471;DHT22;7321;50.802;4.336;2022-07-24T08:02:58;26.00;99.90
14471;DHT22;7321;50.802;4.336;2022-07-24T08:05:24;26.00;99.90
14471;DHT22;7321;50.802;4.336;2022-07-24T08:07:49;26.10;99.90
14471;DHT22;7321;50.802;4.336;2022-07-24T08:10:15;26.20;99.90
14471;DHT22;7321;50.802;4.336;2022-07-24T08:12:41;26.30;99.90
14471;DHT22;7321;50.802;4.336;2022-07-24T08:15:07;26.40;99.90
14471;DHT22;7321;50.802;4.336;2022-07-24T08:17:33;26.50;99.90
14471;DHT22;7321;50.802;4.336;2022-07-24T08:19:59;26.60;99.90
14471;DHT22;7321;50.802;4.336;2022-07-24T08:22:25;26.70;99.90
14471;DHT22;7321;50.802;4.336;2022-07-24T08:24:50;26.70;99.90
14471;DHT22;7321;50.802;4.336;2022-07-24T08:27:16;26.60;99.90
14471;DHT22;7321;50.802;4.336;2022-07-24T08:29:42;26.80;99.90
14471;DHT22;7321;50.802;4.336;2022-07-24T08:32:08;26.90;99.90
14471;DHT22;7321;50.802;4.336;2022-07-24T08:34:33;26.80;99.90
14471;DHT22;7321;50.802;4.336;2022-07-24T08:36:59;26.90;99.90
14471;DHT22;7321;50.802;4.336;2022-07-24T08:39:25;26.90;99.90
14471;DHT22;7321;50.802;4.336;2022-07-24T08:41:50;27.10;99.90
14471;DHT22;7321;50.802;4.336;2022-07-24T08:44:16;27.40;99.90
14471;DHT22;7321;50.802;4.336;2022-07-24T08:46:42;27.40;99.90
14471;DHT22;7321;50.802;4.336;2022-07-24T08:49:13;27.40;99.90
14471;DHT22;7321;50.802;4.336;2022-07-24T08:51:40;27.40;99.90
14471;DHT22;7321;50.802;4.336;2022-07-24T08:54:07;27.40;99.90
14471;DHT22;7321;50.802;4.336;2022-07-24T08:56:33;27.50;99.90
14471;DHT22;7321;50.802;4.336;2022-07-24T08:58:59;27.50;99.90
14471;DHT22;7321;50.802;4.336;2022-07-24T09:01:26;27.70;99.90
14471;DHT22;7321;50.802;4.336;2022-07-24T09:03:51;27.90;99.90
14471;DHT22;7321;50.802;4.336;2022-07-24T09:06:18;28.00;99.90
14471;DHT22;7321;50.802;4.336;2022-07-24T09:08:57;28.00;99.90
14471;DHT22;7321;50.802;4.336;2022-07-24T09:11:23;28.20;99.90
14471;DHT22;7321;50.802;4.336;2022-07-24T09:13:52;28.40;99.90
14471;DHT22;7321;50.802;4.336;2022-07-24T09:16:36;28.50;99.90
14471;DHT22;7321;50.802;4.336;2022-07-24T09:19:07;28.40;99.90
14471;DHT22;7321;50.802;4.336;2022-07-24T09:21:35;28.50;99.90
14471;DHT22;7321;50.802;4.336;2022-07-24T09:24:15;28.50;99.90
14471;DHT22;7321;50.802;4.336;2022-07-24T09:26:47;28.50;99.90
14471;DHT22;7321;50.802;4.336;2022-07-24T09:29:14;28.20;99.90
14471;DHT22;7321;50.802;4.336;2022-07-24T09:31:51;28.20;99.90
14471;DHT22;7321;50.802;4.336;2022-07-24T09:34:17;28.30;99.90
14471;DHT22;7321;50.802;4.336;2022-07-24T09:36:58;28.40;99.90
14471;DHT22;7321;50.802;4.336;2022-07-24T09:39:26;28.50;99.90
14471;DHT22;7321;50.802;4.336;2022-07-24T09:41:53;28.50;99.90
14471;DHT22;7321;50.802;4.336;2022-07-24T09:44:19;28.60;99.90
14471;DHT22;7321;50.802;4.336;2022-07-24T09:47:03;28.60;99.90
14471;DHT22;7321;50.802;4.336;2022-07-24T09:49:30;28.70;99.90
14471;DHT22;7321;50.802;4.336;2022-07-24T09:54:35;28.90;99.90
14471;DHT22;7321;50.802;4.336;2022-07-24T09:57:18;29.00;99.90
14471;DHT22;7321;50.802;4.336;2022-07-24T09:59:50;29.20;99.90
14471;DHT22;7321;50.802;4.336;2022-07-24T10:02:18;29.30;99.90
14471;DHT22;7321;50.802;4.336;2022-07-24T10:04:45;29.30;99.90
14471;DHT22;7321;50.802;4.336;2022-07-24T10:07:13;29.30;99.90
14471;DHT22;7321;50.802;4.336;2022-07-24T10:09:45;29.30;99.90
14471;DHT22;7321;50.802;4.336;2022-07-24T10:12:19;29.30;99.90
14471;DHT22;7321;50.802;4.336;2022-07-24T10:14:47;29.30;99.90
14471;DHT22;7321;50.802;4.336;2022-07-24T10:17:15;29.20;99.90
14471;DHT22;7321;50.802;4.336;2022-07-24T10:19:44;29.20;99.90
14471;DHT22;7321;50.802;4.336;2022-07-24T10:22:14;29.40;99.90
14471;DHT22;7321;50.802;4.336;2022-07-24T10:29:52;29.80;99.90
14471;DHT22;7321;50.802;4.336;2022-07-24T10:32:18;29.90;99.90
14471;DHT22;7321;50.802;4.336;2022-07-24T10:37:47;29.20;99.90
14471;DHT22;7321;50.802;4.336;2022-07-24T10:43:07;29.70;99.90
14471;DHT22;7321;50.802;4.336;2022-07-24T10:45:45;29.90;99.90
14471;DHT22;7321;50.802;4.336;2022-07-24T10:53:23;29.80;99.90
14471;DHT22;7321;50.802;4.336;2022-07-24T10:55:48;29.90;99.90
14471;DHT22;7321;50.802;4.336;2022-07-24T10:58:15;30.20;99.90
14471;DHT22;7321;50.802;4.336;2022-07-24T11:00:49;30.20;99.90
14471;DHT22;7321;50.802;4.336;2022-07-24T11:03:24;30.10;99.90
14471;DHT22;7321;50.802;4.336;2022-07-24T11:06:07;30.00;99.90
14471;DHT22;7321;50.802;4.336;2022-07-24T11:08:42;30.20;99.90
14471;DHT22;7321;50.802;4.336;2022-07-24T11:11:15;30.30;99.90
14471;DHT22;7321;50.802;4.336;2022-07-24T11:13:43;30.50;99.90
14471;DHT22;7321;50.802;4.336;2022-07-24T11:21:28;31.00;99.90
14471;DHT22;7321;50.802;4.336;2022-07-24T11:24:19;31.00;99.90
14471;DHT22;7321;50.802;4.336;2022-07-24T11:26:54;31.00;99.90
14471;DHT22;7321;50.802;4.336;2022-07-24T11:29:29;30.80;99.90
14471;DHT22;7321;50.802;4.336;2022-07-24T11:34:28;30.80;99.90
14471;DHT22;7321;50.802;4.336;2022-07-24T11:36:55;30.80;99.90
14471;DHT22;7321;50.802;4.336;2022-07-24T11:39:28;30.80;99.90
14471;DHT22;7321;50.802;4.336;2022-07-24T11:42:00;30.90;99.90
14471;DHT22;7321;50.802;4.336;2022-07-24T11:44:31;31.10;99.90
14471;DHT22;7321;50.802;4.336;2022-07-24T11:46:59;31.00;99.90
14471;DHT22;7321;50.802;4.336;2022-07-24T11:49:26;30.80;99.90
14471;DHT22;7321;50.802;4.336;2022-07-24T11:51:53;31.00;99.90
14471;DHT22;7321;50.802;4.336;2022-07-24T11:54:25;30.90;99.90
14471;DHT22;7321;50.802;4.336;2022-07-24T11:56:52;31.00;99.90
14471;DHT22;7321;50.802;4.336;2022-07-24T11:59:29;31.10;99.90
14471;DHT22;7321;50.802;4.336;2022-07-24T12:02:09;31.30;99.90
14471;DHT22;7321;50.802;4.336;2022-07-24T12:04:38;31.40;99.90
14471;DHT22;7321;50.802;4.336;2022-07-24T12:07:12;31.50;99.90
14471;DHT22;7321;50.802;4.336;2022-07-24T12:09:56;31.40;99.90
14471;DHT22;7321;50.802;4.336;2022-07-24T12:12:37;31.40;99.90
14471;DHT22;7321;50.802;4.336;2022-07-24T12:15:11;31.50;99.90
14471;DHT22;7321;50.802;4.336;2022-07-24T12:20:30;31.40;99.90
14471;DHT22;7321;50.802;4.336;2022-07-24T12:22:57;31.30;99.90
14471;DHT22;7321;50.802;4.336;2022-07-24T12:25:23;31.30;99.90
14471;DHT22;7321;50.802;4.336;2022-07-24T12:27:50;31.30;99.90
14471;DHT22;7321;50.802;4.336;2022-07-24T12:30:26;31.40;99.90
14471;DHT22;7321;50.802;4.336;2022-07-24T12:33:00;31.50;99.90
14471;DHT22;7321;50.802;4.336;2022-07-24T12:35:28;31.50;99.90
14471;DHT22;7321;50.802;4.336;2022-07-24T12:37:55;31.50;99.90
14471;DHT22;7321;50.802;4.336;2022-07-24T12:42:58;31.60;99.90
14471;DHT22;7321;50.802;4.336;2022-07-24T12:45:24;31.50;99.90
14471;DHT22;7321;50.802;4.336;2022-07-24T12:48:10;31.60;99.90
14471;DHT22;7321;50.802;4.336;2022-07-24T12:50:37;31.70;99.90
14471;DHT22;7321;50.802;4.336;2022-07-24T12:53:08;31.50;99.90
14471;DHT22;7321;50.802;4.336;2022-07-24T12:55:35;31.40;99.90
14471;DHT22;7321;50.802;4.336;2022-07-24T12:58:02;31.30;99.90
14471;DHT22;7321;50.802;4.336;2022-07-24T13:00:29;31.40;99.90
14471;DHT22;7321;50.802;4.336;2022-07-24T13:02:54;31.50;99.90
14471;DHT22;7321;50.802;4.336;2022-07-24T13:05:42;31.60;99.90
14471;DHT22;7321;50.802;4.336;2022-07-24T13:08:12;31.70;99.90
14471;DHT22;7321;50.802;4.336;2022-07-24T13:10:38;31.50;99.90
14471;DHT22;7321;50.802;4.336;2022-07-24T13:13:03;31.50;99.90
14471;DHT22;7321;50.802;4.336;2022-07-24T13:15:29;31.60;99.90
14471;DHT22;7321;50.802;4.336;2022-07-24T13:17:55;31.70;99.90
14471;DHT22;7321;50.802;4.336;2022-07-24T13:20:21;31.70;99.90
14471;DHT22;7321;50.802;4.336;2022-07-24T13:22:47;31.70;99.90
14471;DHT22;7321;50.802;4.336;2022-07-24T13:25:12;31.70;99.90
14471;DHT22;7321;50.802;4.336;2022-07-24T13:27:38;31.40;99.90
14471;DHT22;7321;50.802;4.336;2022-07-24T13:30:04;31.40;99.90
14471;DHT22;7321;50.802;4.336;2022-07-24T13:32:30;31.50;99.90
14471;DHT22;7321;50.802;4.336;2022-07-24T13:34:56;31.50;99.90
14471;DHT22;7321;50.802;4.336;2022-07-24T13:37:21;31.70;99.90
14471;DHT22;7321;50.802;4.336;2022-07-24T13:39:47;31.60;99.90
14471;DHT22;7321;50.802;4.336;2022-07-24T13:42:13;31.50;99.90
14471;DHT22;7321;50.802;4.336;2022-07-24T13:44:40;31.50;99.90
14471;DHT22;7321;50.802;4.336;2022-07-24T13:47:06;31.60;99.90
14471;DHT22;7321;50.802;4.336;2022-07-24T13:49:32;31.70;99.90
14471;DHT22;7321;50.802;4.336;2022-07-24T13:51:58;31.80;99.90
14471;DHT22;7321;50.802;4.336;2022-07-24T13:54:24;31.70;99.90
14471;DHT22;7321;50.802;4.336;2022-07-24T13:56:50;31.70;99.90
14471;DHT22;7321;50.802;4.336;2022-07-24T13:59:17;31.80;99.90
14471;DHT22;7321;50.802;4.336;2022-07-24T14:01:43;31.90;99.90
14471;DHT22;7321;50.802;4.336;2022-07-24T14:04:08;31.90;99.90
14471;DHT22;7321;50.802;4.336;2022-07-24T14:06:35;31.90;99.90
14471;DHT22;7321;50.802;4.336;2022-07-24T14:09:04;31.90;99.90
14471;DHT22;7321;50.802;4.336;2022-07-24T14:11:30;31.70;99.90
14471;DHT22;7321;50.802;4.336;2022-07-24T14:13:56;31.90;99.90
14471;DHT22;7321;50.802;4.336;2022-07-24T14:16:22;31.80;99.90
14471;DHT22;7321;50.802;4.336;2022-07-24T14:18:48;31.80;99.90
14471;DHT22;7321;50.802;4.336;2022-07-24T14:21:14;31.90;99.90
14471;DHT22;7321;50.802;4.336;2022-07-24T14:23:40;32.00;99.90
14471;DHT22;7321;50.802;4.336;2022-07-24T14:26:05;31.90;99.90
14471;DHT22;7321;50.802;4.336;2022-07-24T14:28:32;32.00;99.90
14471;DHT22;7321;50.802;4.336;2022-07-24T14:30:58;32.00;99.90
14471;DHT22;7321;50.802;4.336;2022-07-24T14:33:23;32.00;99.90
14471;DHT22;7321;50.802;4.336;2022-07-24T14:35:49;32.10;99.90
14471;DHT22;7321;50.802;4.336;2022-07-24T14:38:15;32.10;99.90
14471;DHT22;7321;50.802;4.336;2022-07-24T14:40:41;31.90;99.90
14471;DHT22;7321;50.802;4.336;2022-07-24T14:43:07;31.90;99.90
14471;DHT22;7321;50.802;4.336;2022-07-24T14:45:33;32.00;99.90
14471;DHT22;7321;50.802;4.336;2022-07-24T14:47:58;32.00;99.90
14471;DHT22;7321;50.802;4.336;2022-07-24T14:50:24;32.10;99.90
14471;DHT22;7321;50.802;4.336;2022-07-24T14:52:50;32.10;99.90
14471;DHT22;7321;50.802;4.336;2022-07-24T14:55:15;32.20;99.90
14471;DHT22;7321;50.802;4.336;2022-07-24T14:57:41;32.10;99.90
14471;DHT22;7321;50.802;4.336;2022-07-24T15:00:08;32.40;99.90
14471;DHT22;7321;50.802;4.336;2022-07-24T15:02:34;32.50;99.90
14471;DHT22;7321;50.802;4.336;2022-07-24T15:05:00;32.60;99.90
14471;DHT22;7321;50.802;4.336;2022-07-24T15:07:26;32.70;99.90
14471;DHT22;7321;50.802;4.336;2022-07-24T15:09:52;32.80;99.90
14471;DHT22;7321;50.802;4.336;2022-07-24T15:12:17;33.10;99.90
14471;DHT22;7321;50.802;4.336;2022-07-24T15:14:43;33.40;99.90
14471;DHT22;7321;50.802;4.336;2022-07-24T15:17:09;33.50;99.90
14471;DHT22;7321;50.802;4.336;2022-07-24T15:19:35;33.60;99.90
14471;DHT22;7321;50.802;4.336;2022-07-24T15:22:01;33.80;99.90
14471;DHT22;7321;50.802;4.336;2022-07-24T15:24:26;33.80;99.70
14471;DHT22;7321;50.802;4.336;2022-07-24T15:26:52;33.80;99.50
14471;DHT22;7321;50.802;4.336;2022-07-24T15:29:18;33.70;99.40
14471;DHT22;7321;50.802;4.336;2022-07-24T15:31:44;33.80;98.80
14471;DHT22;7321;50.802;4.336;2022-07-24T15:34:13;33.70;98.80
14471;DHT22;7321;50.802;4.336;2022-07-24T15:36:39;33.70;99.10
14471;DHT22;7321;50.802;4.336;2022-07-24T15:39:07;33.80;98.30
14471;DHT22;7321;50.802;4.336;2022-07-24T15:41:33;33.90;98.20
14471;DHT22;7321;50.802;4.336;2022-07-24T15:43:59;33.80;97.90
14471;DHT22;7321;50.802;4.336;2022-07-24T15:46:25;33.90;97.10
14471;DHT22;7321;50.802;4.336;2022-07-24T15:48:51;34.00;97.00
14471;DHT22;7321;50.802;4.336;2022-07-24T15:51:16;34.10;96.80
14471;DHT22;7321;50.802;4.336;2022-07-24T15:53:42;34.20;96.30
14471;DHT22;7321;50.802;4.336;2022-07-24T15:56:08;34.30;95.70
14471;DHT22;7321;50.802;4.336;2022-07-24T15:58:33;34.50;95.80
14471;DHT22;7321;50.802;4.336;2022-07-24T16:00:59;34.80;95.20
14471;DHT22;7321;50.802;4.336;2022-07-24T16:03:25;34.90;94.30
14471;DHT22;7321;50.802;4.336;2022-07-24T16:05:51;35.00;93.20
14471;DHT22;7321;50.802;4.336;2022-07-24T16:08:17;35.20;92.90
14471;DHT22;7321;50.802;4.336;2022-07-24T16:10:42;35.20;92.40
14471;DHT22;7321;50.802;4.336;2022-07-24T16:13:08;35.40;92.30
14471;DHT22;7321;50.802;4.336;2022-07-24T16:15:34;35.30;91.30